createdAt,value
2023-03-31T00:00:25.740Z,15.23
2023-03-31T00:02:54.064Z,10.80
2023-03-31T00:05:21.464Z,9.98
2023-03-31T00:07:48.547Z,12.90
2023-03-31T00:10:18.605Z,10.50
2023-03-31T00:12:46.330Z,13.73
2023-03-31T00:15:13.182Z,12.40
2023-03-31T00:17:40.068Z,9.45
2023-03-31T00:20:12.509Z,12.25
2023-03-31T00:25:11.116Z,9.38
2023-03-31T00:27:37.951Z,11.15
2023-03-31T00:30:05.296Z,10.93
2023-03-31T00:32:33.220Z,10.70
2023-03-31T00:35:02.499Z,10.52
2023-03-31T00:37:30.242Z,11.80
2023-03-31T00:39:57.244Z,9.75
2023-03-31T00:42:24.107Z,13.25
2023-03-31T00:45:15.527Z,8.45
2023-03-31T00:47:47.323Z,14.10
2023-03-31T00:50:25.872Z,9.85
2023-03-31T00:52:59.482Z,10.45
2023-03-31T00:55:33.544Z,12.50
2023-03-31T00:58:01.953Z,13.98
2023-03-31T01:00:30.478Z,12.75
2023-03-31T01:03:01.605Z,14.05
2023-03-31T01:05:36.544Z,9.23
2023-03-31T01:08:05.782Z,13.82
2023-03-31T01:10:41.620Z,13.00
2023-03-31T01:13:10.768Z,11.25
2023-03-31T01:15:38.937Z,14.50
2023-03-31T01:18:06.959Z,9.82
2023-03-31T01:21:08.356Z,11.20
2023-03-31T01:24:35.709Z,10.85
2023-03-31T01:27:28.912Z,9.30
2023-03-31T01:30:21.121Z,12.32
2023-03-31T01:33:11.765Z,14.18
2023-03-31T01:36:00.170Z,13.13
2023-03-31T01:38:50.360Z,11.45
2023-03-31T01:41:38.006Z,10.47
2023-03-31T01:44:24.493Z,9.32
2023-03-31T01:47:01.303Z,11.38
2023-03-31T01:49:47.292Z,9.88
2023-03-31T01:52:25.864Z,11.73
2023-03-31T01:55:15.993Z,12.75
2023-03-31T01:58:07.722Z,14.15
2023-03-31T02:00:41.998Z,7.93
2023-03-31T02:03:17.953Z,8.85
2023-03-31T02:05:53.460Z,8.13
2023-03-31T02:08:25.352Z,13.55
2023-03-31T02:10:53.571Z,12.38
2023-03-31T02:13:22.965Z,8.95
2023-03-31T02:15:54.679Z,7.82
2023-03-31T02:18:26.338Z,15.63
2023-03-31T02:20:57.373Z,12.45
2023-03-31T02:23:29.434Z,11.43
2023-03-31T02:26:16.204Z,15.25
2023-03-31T02:28:43.405Z,11.77
2023-03-31T02:31:21.071Z,9.45
2023-03-31T02:33:48.985Z,10.02
2023-03-31T02:36:16.707Z,9.05
2023-03-31T02:38:54.915Z,14.30
2023-03-31T02:41:21.994Z,7.68
2023-03-31T02:43:49.919Z,8.10
2023-03-31T02:46:16.801Z,9.15
2023-03-31T02:48:50.988Z,9.57
2023-03-31T02:51:42.381Z,7.03
2023-03-31T02:54:33.313Z,6.50
2023-03-31T02:57:19.332Z,7.75
2023-03-31T03:00:25.150Z,6.35
2023-03-31T03:03:17.073Z,11.63
2023-03-31T03:06:17.550Z,10.07
2023-03-31T03:09:23.325Z,9.55
2023-03-31T03:12:05.916Z,9.77
2023-03-31T03:15:15.892Z,6.35
2023-03-31T03:17:45.554Z,7.70
2023-03-31T03:20:16.086Z,9.15
2023-03-31T03:22:43.394Z,7.10
2023-03-31T03:25:13.444Z,7.05
2023-03-31T03:27:40.527Z,4.45
2023-03-31T03:30:12.937Z,8.80
2023-03-31T03:32:40.061Z,11.38
2023-03-31T03:35:07.622Z,11.63
2023-03-31T03:37:34.449Z,5.85
2023-03-31T03:40:01.378Z,7.15
2023-03-31T03:42:28.135Z,6.55
2023-03-31T03:44:54.851Z,7.68
2023-03-31T03:47:21.822Z,5.60
2023-03-31T03:49:49.338Z,6.82
2023-03-31T03:52:16.639Z,6.72
2023-03-31T03:54:43.416Z,9.88
2023-03-31T03:57:10.409Z,8.07
2023-03-31T03:59:37.325Z,9.48
2023-03-31T04:02:04.188Z,9.85
2023-03-31T04:04:31.009Z,8.63
2023-03-31T04:06:57.833Z,9.40
2023-03-31T04:09:24.833Z,7.57
2023-03-31T04:11:51.629Z,7.85
2023-03-31T04:14:18.416Z,7.25
2023-03-31T04:16:46.771Z,8.80
2023-03-31T04:19:17.481Z,8.68
2023-03-31T04:21:50.794Z,4.55
2023-03-31T04:24:22.101Z,7.45
2023-03-31T04:26:50.817Z,6.30
2023-03-31T04:29:20.447Z,5.28
2023-03-31T04:31:47.423Z,5.05
2023-03-31T04:34:15.438Z,7.78
2023-03-31T04:36:47.604Z,8.23
2023-03-31T04:41:43.689Z,4.78
2023-03-31T04:44:10.951Z,6.50
2023-03-31T04:46:37.970Z,6.65
2023-03-31T04:49:05.724Z,8.35
2023-03-31T04:51:32.871Z,7.85
2023-03-31T04:53:59.609Z,8.68
2023-03-31T04:56:26.708Z,10.73
2023-03-31T04:58:53.688Z,8.68
2023-03-31T05:01:20.526Z,8.90
2023-03-31T05:03:48.163Z,8.52
2023-03-31T05:06:18.443Z,9.20
2023-03-31T05:08:45.717Z,11.15
2023-03-31T05:11:12.799Z,6.63
2023-03-31T05:13:40.034Z,7.50
2023-03-31T05:16:12.351Z,8.57
2023-03-31T05:18:39.223Z,6.82
2023-03-31T05:21:17.813Z,8.23
2023-03-31T05:23:46.170Z,8.13
2023-03-31T05:26:13.890Z,8.15
2023-03-31T05:28:41.947Z,5.90
2023-03-31T05:31:09.428Z,9.55
2023-03-31T05:33:40.438Z,9.02
2023-03-31T05:36:15.654Z,8.73
2023-03-31T05:38:43.504Z,6.63
2023-03-31T05:41:11.015Z,8.68
2023-03-31T05:43:42.422Z,10.65
2023-03-31T05:46:10.156Z,11.45
2023-03-31T05:48:38.238Z,6.82
2023-03-31T05:51:05.526Z,6.25
2023-03-31T05:53:32.535Z,9.70
2023-03-31T05:56:05.690Z,9.73
2023-03-31T05:58:35.724Z,7.82
2023-03-31T06:01:08.755Z,8.13
2023-03-31T06:03:38.103Z,5.80
2023-03-31T06:06:06.240Z,9.13
2023-03-31T06:08:33.074Z,5.28
2023-03-31T06:11:02.306Z,9.45
2023-03-31T06:13:29.074Z,9.73
2023-03-31T06:16:00.267Z,8.18
2023-03-31T06:18:29.830Z,11.98
2023-03-31T06:20:57.668Z,7.15
2023-03-31T06:23:25.335Z,9.75
2023-03-31T06:25:52.945Z,9.75
2023-03-31T06:28:20.858Z,9.52
2023-03-31T06:30:47.856Z,7.50
2023-03-31T06:33:14.675Z,13.85
2023-03-31T06:35:41.774Z,11.70
2023-03-31T06:38:09.006Z,7.50
2023-03-31T06:40:36.305Z,11.82
2023-03-31T06:43:03.026Z,13.77
2023-03-31T06:45:29.817Z,9.75
2023-03-31T06:47:56.572Z,11.15
2023-03-31T06:50:23.298Z,10.23
2023-03-31T06:52:53.088Z,17.23
2023-03-31T06:55:19.930Z,11.75
2023-03-31T06:57:46.700Z,10.65
2023-03-31T07:00:14.054Z,9.63
2023-03-31T07:02:40.871Z,8.63
2023-03-31T07:05:08.018Z,8.25
2023-03-31T07:07:35.445Z,11.90
2023-03-31T07:10:02.258Z,11.07
2023-03-31T07:12:29.299Z,8.27
2023-03-31T07:14:56.119Z,10.23
2023-03-31T07:17:25.478Z,8.63
2023-03-31T07:19:52.313Z,8.48
2023-03-31T07:22:19.398Z,16.17
2023-03-31T07:24:46.186Z,9.90
2023-03-31T07:27:13.115Z,8.50
2023-03-31T07:29:39.809Z,11.90
2023-03-31T07:32:06.716Z,14.70
2023-03-31T07:34:34.988Z,11.10
2023-03-31T07:37:03.998Z,12.45
2023-03-31T07:39:30.878Z,11.70
2023-03-31T07:41:57.572Z,12.98
2023-03-31T07:44:24.280Z,15.50
2023-03-31T07:46:51.063Z,11.70
2023-03-31T07:49:17.834Z,11.93
2023-03-31T07:51:44.516Z,12.52
2023-03-31T07:54:11.343Z,13.68
2023-03-31T07:56:38.353Z,16.55
2023-03-31T07:59:07.134Z,9.52
2023-03-31T08:01:34.819Z,11.93
2023-03-31T08:04:02.173Z,10.27
2023-03-31T08:06:30.163Z,11.60
2023-03-31T08:08:57.600Z,10.77
2023-03-31T08:11:25.961Z,14.65
2023-03-31T08:13:53.120Z,12.45
2023-03-31T08:16:19.857Z,7.55
2023-03-31T08:18:46.573Z,13.30
2023-03-31T08:21:13.704Z,13.27
2023-03-31T08:23:40.384Z,6.95
2023-03-31T08:26:17.685Z,12.32
2023-03-31T08:28:46.172Z,12.18
2023-03-31T08:31:16.307Z,7.00
2023-03-31T08:33:43.526Z,8.80
2023-03-31T08:36:11.133Z,4.93
2023-03-31T08:38:46.854Z,7.00
2023-03-31T08:41:54.314Z,6.72
2023-03-31T08:44:34.456Z,9.05
2023-03-31T08:47:02.653Z,7.75
2023-03-31T08:49:37.217Z,5.50
2023-03-31T08:52:07.710Z,4.10
2023-03-31T08:54:43.558Z,9.30
2023-03-31T08:57:25.194Z,6.63
2023-03-31T08:59:52.541Z,7.53
2023-03-31T09:02:48.882Z,3.22
2023-03-31T09:05:49.382Z,3.22
2023-03-31T09:08:40.993Z,4.60
2023-03-31T09:11:36.544Z,7.35
2023-03-31T09:14:12.748Z,6.57
2023-03-31T09:16:46.675Z,4.65
2023-03-31T09:19:47.177Z,5.45
2023-03-31T09:22:24.214Z,6.55
2023-03-31T09:25:01.273Z,3.70
2023-03-31T09:27:31.328Z,4.30
2023-03-31T09:30:12.059Z,7.07
2023-03-31T09:32:39.412Z,6.82
2023-03-31T09:35:25.255Z,4.13
2023-03-31T09:37:52.867Z,3.42
2023-03-31T09:40:25.522Z,5.40
2023-03-31T09:43:08.207Z,4.72
2023-03-31T09:45:35.843Z,2.42
2023-03-31T09:48:07.035Z,6.72
2023-03-31T09:50:44.334Z,2.15
2023-03-31T09:53:42.195Z,3.35
2023-03-31T09:56:11.289Z,3.47
2023-03-31T09:58:43.939Z,3.88
2023-03-31T10:03:53.806Z,6.43
2023-03-31T10:06:22.554Z,4.13
2023-03-31T10:09:03.368Z,3.92
2023-03-31T10:11:30.332Z,5.32
2023-03-31T10:14:03.255Z,5.32
2023-03-31T10:16:48.556Z,6.82
2023-03-31T10:19:30.114Z,3.50
2023-03-31T10:22:27.397Z,10.18
2023-03-31T10:24:56.832Z,3.40
2023-03-31T10:27:32.251Z,3.03
2023-03-31T10:30:01.794Z,5.47
2023-03-31T10:32:40.957Z,5.85
2023-03-31T10:35:22.598Z,1.95
2023-03-31T10:37:57.163Z,2.83
2023-03-31T10:40:27.326Z,2.65
2023-03-31T10:43:16.416Z,2.33
2023-03-31T10:45:58.287Z,7.30
2023-03-31T10:48:31.900Z,5.07
2023-03-31T10:51:05.639Z,3.75
2023-03-31T10:53:43.610Z,2.75
2023-03-31T10:56:36.409Z,7.40
2023-03-31T10:59:22.205Z,3.75
2023-03-31T11:02:02.394Z,4.70
2023-03-31T11:04:43.380Z,2.42
2023-03-31T11:07:34.720Z,4.65
2023-03-31T11:10:20.274Z,4.72
2023-03-31T11:13:11.812Z,4.68
2023-03-31T11:16:08.987Z,2.90
2023-03-31T11:18:57.164Z,4.63
2023-03-31T11:21:34.930Z,4.18
2023-03-31T11:24:10.728Z,4.38
2023-03-31T11:26:54.763Z,4.00
2023-03-31T11:29:59.108Z,4.90
2023-03-31T11:32:50.330Z,5.40
2023-03-31T11:35:39.043Z,6.28
2023-03-31T11:38:15.821Z,3.08
2023-03-31T11:40:57.720Z,2.67
2023-03-31T11:43:48.619Z,3.70
2023-03-31T11:46:27.277Z,6.65
2023-03-31T11:49:04.015Z,2.97
2023-03-31T11:51:41.967Z,6.38
2023-03-31T11:54:37.346Z,3.33
2023-03-31T11:57:17.773Z,5.40
2023-03-31T11:59:49.393Z,4.28
2023-03-31T12:02:18.031Z,4.57
2023-03-31T12:04:50.434Z,5.18
2023-03-31T12:07:34.221Z,6.35
2023-03-31T12:10:15.365Z,8.32
2023-03-31T12:13:01.819Z,13.07
2023-03-31T12:15:40.631Z,8.65
2023-03-31T12:18:20.593Z,9.88
2023-03-31T12:20:56.606Z,11.00
2023-03-31T12:23:27.802Z,11.98
2023-03-31T12:26:22.761Z,12.43
2023-03-31T12:28:55.843Z,12.48
2023-03-31T12:31:24.771Z,14.45
2023-03-31T12:33:59.108Z,10.10
2023-03-31T12:36:49.001Z,9.73
2023-03-31T12:39:36.951Z,15.68
2023-03-31T12:42:23.562Z,11.45
2023-03-31T12:45:06.823Z,13.23
2023-03-31T12:47:49.912Z,10.10
2023-03-31T12:50:46.197Z,9.85
2023-03-31T12:53:30.417Z,8.07
2023-03-31T12:55:58.072Z,9.88
2023-03-31T12:58:24.995Z,7.85
2023-03-31T13:01:10.888Z,6.18
2023-03-31T13:04:17.515Z,7.57
2023-03-31T13:06:50.127Z,10.65
2023-03-31T13:11:50.097Z,16.95
2023-03-31T13:14:19.396Z,7.30
2023-03-31T13:16:47.448Z,9.35
2023-03-31T13:19:28.144Z,8.32
2023-03-31T13:22:05.994Z,10.80
2023-03-31T13:24:34.205Z,11.43
2023-03-31T13:27:35.607Z,6.72
2023-03-31T13:30:02.459Z,8.82
2023-03-31T13:32:29.416Z,8.75
2023-03-31T13:35:07.680Z,13.48
2023-03-31T13:38:07.070Z,8.60
2023-03-31T13:40:55.981Z,10.27
2023-03-31T13:43:53.273Z,11.80
2023-03-31T13:46:46.118Z,9.75
2023-03-31T13:51:59.587Z,9.95
2023-03-31T13:54:35.642Z,9.15
2023-03-31T13:57:21.011Z,9.75
2023-03-31T14:00:02.326Z,9.00
2023-03-31T14:02:31.345Z,10.80
2023-03-31T14:05:09.105Z,8.57
2023-03-31T14:07:54.629Z,10.50
2023-03-31T14:10:36.773Z,10.18
2023-03-31T14:13:18.424Z,7.13
2023-03-31T14:15:54.253Z,7.95
2023-03-31T14:18:35.697Z,7.47
2023-03-31T14:21:17.904Z,5.60
2023-03-31T14:24:03.646Z,5.00
2023-03-31T14:26:42.898Z,5.75
2023-03-31T14:29:21.200Z,9.18
2023-03-31T14:31:56.373Z,5.50
2023-03-31T14:34:35.083Z,9.60
2023-03-31T14:37:05.066Z,12.82
2023-03-31T14:39:44.512Z,10.27
2023-03-31T14:42:21.612Z,6.55
2023-03-31T14:44:48.850Z,9.48
2023-03-31T14:47:29.044Z,8.52
2023-03-31T14:50:22.322Z,9.18
2023-03-31T14:52:52.091Z,5.53
2023-03-31T14:55:26.539Z,7.43
2023-03-31T14:57:57.325Z,4.10
2023-03-31T15:00:30.741Z,4.72
2023-03-31T15:02:59.960Z,5.93
2023-03-31T15:05:30.886Z,5.45
2023-03-31T15:08:12.038Z,8.57
2023-03-31T15:10:42.825Z,13.90
2023-03-31T15:13:12.067Z,8.30
2023-03-31T15:15:38.826Z,7.75
2023-03-31T15:18:05.819Z,8.38
2023-03-31T15:20:37.522Z,11.18
2023-03-31T15:23:21.194Z,6.13
2023-03-31T15:25:48.942Z,8.38
2023-03-31T15:28:18.044Z,6.70
2023-03-31T15:30:47.794Z,4.07
2023-03-31T15:33:24.415Z,6.85
2023-03-31T15:35:51.383Z,8.07
2023-03-31T15:38:18.765Z,9.30
2023-03-31T15:40:52.936Z,7.97
2023-03-31T15:43:31.494Z,9.07
2023-03-31T15:46:02.318Z,7.53
2023-03-31T15:48:37.059Z,5.28
2023-03-31T15:51:18.173Z,6.55
2023-03-31T15:53:47.984Z,6.47
2023-03-31T15:56:29.035Z,7.72
2023-03-31T15:59:20.436Z,5.90
2023-03-31T16:01:49.098Z,5.90
2023-03-31T16:04:16.532Z,9.68
2023-03-31T16:06:54.304Z,4.50
2023-03-31T16:09:38.106Z,7.80
2023-03-31T16:12:15.378Z,5.68
2023-03-31T16:15:01.938Z,4.72
2023-03-31T16:17:34.255Z,6.82
2023-03-31T16:20:08.541Z,4.57
2023-03-31T16:22:44.451Z,3.28
2023-03-31T16:25:18.286Z,4.85
2023-03-31T16:27:54.928Z,3.38
2023-03-31T16:30:37.214Z,2.33
2023-03-31T16:33:07.153Z,6.40
2023-03-31T16:35:48.765Z,5.95
2023-03-31T16:38:16.371Z,5.38
2023-03-31T16:40:46.064Z,2.60
2023-03-31T16:43:17.022Z,2.70
2023-03-31T16:45:49.008Z,5.30
2023-03-31T16:48:18.635Z,3.53
2023-03-31T16:50:46.940Z,5.70
2023-03-31T16:53:15.799Z,5.43
2023-03-31T16:55:42.727Z,6.55
2023-03-31T16:58:09.492Z,6.97
2023-03-31T17:00:36.963Z,7.75
2023-03-31T17:03:07.273Z,3.45
2023-03-31T17:05:42.198Z,4.55
2023-03-31T17:08:10.041Z,7.28
2023-03-31T17:10:38.104Z,4.47
2023-03-31T17:13:05.212Z,4.97
2023-03-31T17:15:32.083Z,3.25
2023-03-31T17:17:59.191Z,5.50
2023-03-31T17:20:26.490Z,6.95
2023-03-31T17:22:54.255Z,6.80
2023-03-31T17:25:21.533Z,5.90
2023-03-31T17:27:48.654Z,6.20
2023-03-31T17:30:15.760Z,8.30
2023-03-31T17:32:42.655Z,4.97
2023-03-31T17:35:10.425Z,4.97
2023-03-31T17:37:37.521Z,5.72
2023-03-31T17:40:06.062Z,3.60
2023-03-31T17:42:32.978Z,4.55
2023-03-31T17:44:59.700Z,4.03
2023-03-31T17:47:27.111Z,5.65
2023-03-31T17:49:54.723Z,5.00
2023-03-31T17:52:21.479Z,6.38
2023-03-31T17:54:50.285Z,6.60
2023-03-31T17:57:17.751Z,6.10
2023-03-31T17:59:45.070Z,3.15
2023-03-31T18:02:13.121Z,4.72
2023-03-31T18:04:39.919Z,4.60
2023-03-31T18:07:06.848Z,8.65
2023-03-31T18:09:34.413Z,5.00
2023-03-31T18:12:01.377Z,4.68
2023-03-31T18:14:28.493Z,5.32
2023-03-31T18:16:55.213Z,4.57
2023-03-31T18:19:22.563Z,3.45
2023-03-31T18:21:49.512Z,6.38
2023-03-31T18:24:16.858Z,3.45
2023-03-31T18:26:43.763Z,4.88
2023-03-31T18:29:10.675Z,5.60
2023-03-31T18:31:37.916Z,4.88
2023-03-31T18:34:04.704Z,3.28
2023-03-31T18:36:32.492Z,2.35
2023-03-31T18:38:59.414Z,3.40
2023-03-31T18:41:26.203Z,3.85
2023-03-31T18:43:53.053Z,4.13
2023-03-31T18:46:20.076Z,2.38
2023-03-31T18:48:46.823Z,3.20
2023-03-31T18:51:14.516Z,3.10
2023-03-31T18:53:41.800Z,2.28
2023-03-31T18:56:09.330Z,3.45
2023-03-31T18:58:37.186Z,3.55
2023-03-31T19:01:04.262Z,1.77
2023-03-31T19:03:31.147Z,2.65
2023-03-31T19:06:04.657Z,5.50
2023-03-31T19:08:32.239Z,5.57
2023-03-31T19:11:10.123Z,3.33
2023-03-31T19:13:38.142Z,4.07
2023-03-31T19:16:05.972Z,3.88
2023-03-31T19:18:32.834Z,2.10
2023-03-31T19:21:01.009Z,3.42
2023-03-31T19:23:27.979Z,3.13
2023-03-31T19:25:57.549Z,3.97
2023-03-31T19:28:25.714Z,3.78
2023-03-31T19:30:54.910Z,3.70
2023-03-31T19:33:21.692Z,1.98
2023-03-31T19:35:48.705Z,2.75
2023-03-31T19:38:15.540Z,3.90
2023-03-31T19:40:42.817Z,2.70
2023-03-31T19:43:24.324Z,3.95
2023-03-31T19:45:57.494Z,4.22
2023-03-31T19:48:26.415Z,5.07
2023-03-31T19:50:59.601Z,2.67
2023-03-31T19:53:26.860Z,3.13
2023-03-31T19:55:56.787Z,5.03
2023-03-31T19:58:23.897Z,3.78
2023-03-31T20:00:52.391Z,3.45
2023-03-31T20:03:19.571Z,3.92
2023-03-31T20:05:46.742Z,4.50
2023-03-31T20:08:14.004Z,3.78
2023-03-31T20:10:41.963Z,4.20
2023-03-31T20:13:09.250Z,3.22
2023-03-31T20:15:37.154Z,2.63
2023-03-31T20:18:05.184Z,2.65
2023-03-31T20:20:31.916Z,4.32
2023-03-31T20:22:59.816Z,2.80
2023-03-31T20:25:26.979Z,2.40
2023-03-31T20:27:53.729Z,3.33
2023-03-31T20:30:20.540Z,6.30
2023-03-31T20:32:47.383Z,3.65
2023-03-31T20:35:14.247Z,2.88
2023-03-31T20:37:41.065Z,3.60
2023-03-31T20:40:08.389Z,4.55
2023-03-31T20:42:35.861Z,3.17
2023-03-31T20:45:03.047Z,4.43
2023-03-31T20:47:30.372Z,2.40
2023-03-31T20:49:57.091Z,3.85
2023-03-31T20:52:23.898Z,5.05
2023-03-31T20:54:51.207Z,3.78
2023-03-31T20:57:18.044Z,3.92
2023-03-31T20:59:45.416Z,3.25
2023-03-31T21:02:12.960Z,5.65
2023-03-31T21:04:39.707Z,3.80
2023-03-31T21:07:06.458Z,4.03
2023-03-31T21:09:33.176Z,2.95
2023-03-31T21:12:01.338Z,2.58
2023-03-31T21:14:29.547Z,4.60
2023-03-31T21:16:56.429Z,4.00
2023-03-31T21:19:23.176Z,3.42
2023-03-31T21:21:49.917Z,7.00
2023-03-31T21:24:16.774Z,4.43
2023-03-31T21:26:43.513Z,5.97
2023-03-31T21:29:10.663Z,5.47
2023-03-31T21:31:37.493Z,4.07
2023-03-31T21:34:04.673Z,4.80
2023-03-31T21:36:31.573Z,5.53
2023-03-31T21:38:58.410Z,5.18
2023-03-31T21:41:28.188Z,5.28
2023-03-31T21:43:55.549Z,4.32
2023-03-31T21:46:28.184Z,6.15
2023-03-31T21:51:22.984Z,3.75
2023-03-31T21:53:52.979Z,5.25
2023-03-31T21:56:19.890Z,4.50
2023-03-31T21:58:46.676Z,4.40
2023-03-31T22:01:13.482Z,4.03
2023-03-31T22:03:42.238Z,5.40
2023-03-31T22:06:09.652Z,4.35
2023-03-31T22:08:37.698Z,4.75
2023-03-31T22:11:06.849Z,6.93
2023-03-31T22:13:33.967Z,3.63
2023-03-31T22:16:01.875Z,6.63
2023-03-31T22:18:29.732Z,4.75
2023-03-31T22:20:57.345Z,4.05
2023-03-31T22:23:24.568Z,5.05
2023-03-31T22:25:51.384Z,7.60
2023-03-31T22:28:18.118Z,6.72
2023-03-31T22:30:45.137Z,4.05
2023-03-31T22:33:12.020Z,3.90
2023-03-31T22:35:38.821Z,6.43
2023-03-31T22:38:06.703Z,6.30
2023-03-31T22:40:35.062Z,4.68
2023-03-31T22:43:01.956Z,4.13
2023-03-31T22:45:28.697Z,6.95
2023-03-31T22:47:55.568Z,4.35
2023-03-31T22:50:22.885Z,5.65
2023-03-31T22:52:49.739Z,4.80
2023-03-31T22:55:16.999Z,4.45
2023-03-31T22:57:44.523Z,4.63
2023-03-31T23:00:12.711Z,4.63
2023-03-31T23:02:39.823Z,7.38
2023-03-31T23:05:07.162Z,5.43
2023-03-31T23:07:34.017Z,7.18
2023-03-31T23:10:00.974Z,6.35
2023-03-31T23:12:28.674Z,3.63
2023-03-31T23:14:55.407Z,5.03
2023-03-31T23:17:22.327Z,7.05
2023-03-31T23:19:49.908Z,4.57
2023-03-31T23:22:16.721Z,3.50
2023-03-31T23:24:43.504Z,5.38
2023-03-31T23:27:10.649Z,3.90
2023-03-31T23:29:37.418Z,3.42
2023-03-31T23:32:04.450Z,3.67
2023-03-31T23:34:31.457Z,3.42
2023-03-31T23:36:58.136Z,4.07
2023-03-31T23:39:24.988Z,6.38
2023-03-31T23:41:52.157Z,4.43
2023-03-31T23:44:21.806Z,5.43
2023-03-31T23:46:48.961Z,4.07
2023-03-31T23:49:16.143Z,4.65
2023-03-31T23:51:42.855Z,5.25
2023-03-31T23:54:09.576Z,5.20
2023-03-31T23:56:36.329Z,5.35
2023-03-31T23:59:03.085Z,3.00
